aviador You're here:

KEPH Decoded Metar

EPHRATA in WA, USA
Report Time2017-07-26 21:53:00
UTC Time2017-07-26 22:37:43
Flight Rules vfr VFR
Wind190° at 13 kt
W.Decomp.*RWY 21: 10.5 kt HW 7.6 kt LCW
RWY 22: 9.0 kt HW 9.4 kt LCW
RWY 11: 5.7 kt HW 11.7 kt RCW
W.Rank190° ranks 15
Current wind is above 190° avg. (7.7)
Visibility9999 m
Phenomena:N/A
Clouds:N/A
Expected CloudBase > 11,200 ft AGL from Temp-Dew spread
CeilingNone
Temp35°C (ISA +22)
Dew Point07°C (18% RH)
Heat Index32.8°C
AAT29.6°C
QNH1014 hPa
Density Alt3,907 ft
Elevation1,257 ft
Report Wrong Elevation
Raw Report
METAR KEPH 262153Z AUTO 19013KT 10SM CLR 35/07 A2993 RMK AO2 SLP125
T03500072=

Extra information for KEPH:More info

Metar Taf Metar & Taf Last 4 Metars F.Rules Stats Wind Profile Meteogram Temp Stats Airport Information Weather charts Add Link Nearby VenuesMetar ALERT Operation Metar Decoded Social comments

AIRNAV info for KEPH